sensor_id;sensor_type;location;lat;lon;timestamp;P1;durP1;ratioP1;P2;durP2;ratioP2
63046;SDS011;62025;39.238;9.126;2023-12-20T00:01:54;14.32;;;8.63;;
63046;SDS011;62025;39.238;9.126;2023-12-20T00:04:20;17.15;;;9.65;;
63046;SDS011;62025;39.238;9.126;2023-12-20T00:06:46;15.02;;;10.85;;
63046;SDS011;62025;39.238;9.126;2023-12-20T00:09:12;16.65;;;11.65;;
63046;SDS011;62025;39.238;9.126;2023-12-20T00:11:38;16.42;;;10.60;;
63046;SDS011;62025;39.238;9.126;2023-12-20T00:14:04;18.23;;;11.25;;
63046;SDS011;62025;39.238;9.126;2023-12-20T00:16:30;18.33;;;12.23;;
63046;SDS011;62025;39.238;9.126;2023-12-20T00:18:57;17.10;;;12.63;;
63046;SDS011;62025;39.238;9.126;2023-12-20T00:21:23;21.40;;;13.18;;
63046;SDS011;62025;39.238;9.126;2023-12-20T00:23:49;15.68;;;11.10;;
63046;SDS011;62025;39.238;9.126;2023-12-20T00:26:15;17.45;;;11.70;;
63046;SDS011;62025;39.238;9.126;2023-12-20T00:28:41;17.02;;;12.15;;
63046;SDS011;62025;39.238;9.126;2023-12-20T00:31:07;16.88;;;10.48;;
63046;SDS011;62025;39.238;9.126;2023-12-20T00:33:34;12.20;;;9.70;;
63046;SDS011;62025;39.238;9.126;2023-12-20T00:36:00;12.55;;;9.13;;
63046;SDS011;62025;39.238;9.126;2023-12-20T00:38:26;12.27;;;8.35;;
63046;SDS011;62025;39.238;9.126;2023-12-20T00:40:52;15.40;;;8.85;;
63046;SDS011;62025;39.238;9.126;2023-12-20T00:43:18;13.63;;;8.43;;
63046;SDS011;62025;39.238;9.126;2023-12-20T00:45:44;11.50;;;8.35;;
63046;SDS011;62025;39.238;9.126;2023-12-20T00:48:10;11.32;;;8.10;;
63046;SDS011;62025;39.238;9.126;2023-12-20T00:50:36;12.57;;;8.57;;
63046;SDS011;62025;39.238;9.126;2023-12-20T00:53:02;10.20;;;7.28;;
63046;SDS011;62025;39.238;9.126;2023-12-20T00:55:29;11.35;;;7.55;;
63046;SDS011;62025;39.238;9.126;2023-12-20T00:57:54;10.75;;;7.25;;
63046;SDS011;62025;39.238;9.126;2023-12-20T01:00:20;10.80;;;7.00;;
63046;SDS011;62025;39.238;9.126;2023-12-20T01:02:46;9.20;;;6.82;;
63046;SDS011;62025;39.238;9.126;2023-12-20T01:05:15;9.93;;;6.93;;
63046;SDS011;62025;39.238;9.126;2023-12-20T01:07:41;9.27;;;6.57;;
63046;SDS011;62025;39.238;9.126;2023-12-20T01:10:07;8.88;;;6.85;;
63046;SDS011;62025;39.238;9.126;2023-12-20T01:12:34;8.90;;;6.15;;
63046;SDS011;62025;39.238;9.126;2023-12-20T01:15:01;9.07;;;6.85;;
63046;SDS011;62025;39.238;9.126;2023-12-20T01:17:27;8.98;;;6.07;;
63046;SDS011;62025;39.238;9.126;2023-12-20T01:19:53;8.93;;;6.00;;
63046;SDS011;62025;39.238;9.126;2023-12-20T01:22:19;9.18;;;5.80;;
63046;SDS011;62025;39.238;9.126;2023-12-20T01:24:45;9.13;;;5.78;;
63046;SDS011;62025;39.238;9.126;2023-12-20T01:27:11;8.00;;;5.35;;
63046;SDS011;62025;39.238;9.126;2023-12-20T01:29:37;6.88;;;5.00;;
63046;SDS011;62025;39.238;9.126;2023-12-20T01:32:03;7.25;;;5.03;;
63046;SDS011;62025;39.238;9.126;2023-12-20T01:34:30;7.82;;;4.70;;
63046;SDS011;62025;39.238;9.126;2023-12-20T01:36:56;5.65;;;3.90;;
63046;SDS011;62025;39.238;9.126;2023-12-20T01:39:22;5.32;;;3.97;;
63046;SDS011;62025;39.238;9.126;2023-12-20T01:41:48;5.47;;;4.15;;
63046;SDS011;62025;39.238;9.126;2023-12-20T01:44:15;5.70;;;3.83;;
63046;SDS011;62025;39.238;9.126;2023-12-20T01:46:40;5.63;;;3.65;;
63046;SDS011;62025;39.238;9.126;2023-12-20T01:49:06;6.20;;;3.78;;
63046;SDS011;62025;39.238;9.126;2023-12-20T01:51:33;5.75;;;3.60;;
63046;SDS011;62025;39.238;9.126;2023-12-20T01:54:00;4.20;;;3.20;;
63046;SDS011;62025;39.238;9.126;2023-12-20T01:56:27;6.00;;;3.72;;
63046;SDS011;62025;39.238;9.126;2023-12-20T01:58:55;4.82;;;3.50;;
63046;SDS011;62025;39.238;9.126;2023-12-20T02:01:22;4.40;;;3.42;;
63046;SDS011;62025;39.238;9.126;2023-12-20T02:03:48;4.78;;;3.20;;
63046;SDS011;62025;39.238;9.126;2023-12-20T02:06:15;3.97;;;3.45;;
63046;SDS011;62025;39.238;9.126;2023-12-20T02:08:43;6.28;;;3.30;;
63046;SDS011;62025;39.238;9.126;2023-12-20T02:11:09;5.28;;;3.10;;
63046;SDS011;62025;39.238;9.126;2023-12-20T02:13:36;5.95;;;3.67;;
63046;SDS011;62025;39.238;9.126;2023-12-20T02:16:02;4.93;;;3.40;;
63046;SDS011;62025;39.238;9.126;2023-12-20T02:18:28;5.00;;;3.40;;
63046;SDS011;62025;39.238;9.126;2023-12-20T02:20:54;5.68;;;3.92;;
63046;SDS011;62025;39.238;9.126;2023-12-20T02:23:21;8.57;;;4.05;;
63046;SDS011;62025;39.238;9.126;2023-12-20T02:25:47;5.70;;;3.60;;
63046;SDS011;62025;39.238;9.126;2023-12-20T02:28:13;6.55;;;3.92;;
63046;SDS011;62025;39.238;9.126;2023-12-20T02:30:40;5.13;;;3.83;;
63046;SDS011;62025;39.238;9.126;2023-12-20T02:33:07;5.15;;;3.65;;
63046;SDS011;62025;39.238;9.126;2023-12-20T02:35:37;5.15;;;3.63;;
63046;SDS011;62025;39.238;9.126;2023-12-20T02:38:02;5.32;;;3.22;;
63046;SDS011;62025;39.238;9.126;2023-12-20T02:40:29;6.95;;;3.47;;
63046;SDS011;62025;39.238;9.126;2023-12-20T02:42:55;5.00;;;3.22;;
63046;SDS011;62025;39.238;9.126;2023-12-20T02:45:21;4.90;;;2.60;;
63046;SDS011;62025;39.238;9.126;2023-12-20T02:47:46;4.53;;;2.90;;
63046;SDS011;62025;39.238;9.126;2023-12-20T02:50:13;5.03;;;2.85;;
63046;SDS011;62025;39.238;9.126;2023-12-20T02:52:39;5.05;;;2.60;;
63046;SDS011;62025;39.238;9.126;2023-12-20T02:55:05;3.67;;;2.92;;
63046;SDS011;62025;39.238;9.126;2023-12-20T02:57:31;6.57;;;2.92;;
63046;SDS011;62025;39.238;9.126;2023-12-20T02:59:58;5.32;;;2.72;;
63046;SDS011;62025;39.238;9.126;2023-12-20T03:02:24;4.03;;;2.60;;
63046;SDS011;62025;39.238;9.126;2023-12-20T03:04:50;4.38;;;2.65;;
63046;SDS011;62025;39.238;9.126;2023-12-20T03:07:16;4.30;;;2.72;;
63046;SDS011;62025;39.238;9.126;2023-12-20T03:09:42;3.22;;;2.53;;
63046;SDS011;62025;39.238;9.126;2023-12-20T03:12:08;5.90;;;2.72;;
63046;SDS011;62025;39.238;9.126;2023-12-20T03:14:34;5.55;;;2.90;;
63046;SDS011;62025;39.238;9.126;2023-12-20T03:17:00;6.05;;;2.90;;
63046;SDS011;62025;39.238;9.126;2023-12-20T03:19:26;3.65;;;2.60;;
63046;SDS011;62025;39.238;9.126;2023-12-20T03:21:52;5.38;;;3.10;;
63046;SDS011;62025;39.238;9.126;2023-12-20T03:24:18;3.92;;;2.85;;
63046;SDS011;62025;39.238;9.126;2023-12-20T03:26:44;6.82;;;3.20;;
63046;SDS011;62025;39.238;9.126;2023-12-20T03:29:10;4.20;;;3.00;;
63046;SDS011;62025;39.238;9.126;2023-12-20T03:31:36;4.95;;;2.75;;
63046;SDS011;62025;39.238;9.126;2023-12-20T03:34:02;3.88;;;2.78;;
63046;SDS011;62025;39.238;9.126;2023-12-20T03:36:28;7.07;;;3.08;;
63046;SDS011;62025;39.238;9.126;2023-12-20T03:38:54;3.95;;;2.80;;
63046;SDS011;62025;39.238;9.126;2023-12-20T03:41:20;4.57;;;3.03;;
63046;SDS011;62025;39.238;9.126;2023-12-20T03:43:46;4.78;;;2.83;;
63046;SDS011;62025;39.238;9.126;2023-12-20T03:46:12;5.85;;;3.03;;
63046;SDS011;62025;39.238;9.126;2023-12-20T03:48:38;3.90;;;2.70;;
63046;SDS011;62025;39.238;9.126;2023-12-20T03:51:04;4.82;;;2.85;;
63046;SDS011;62025;39.238;9.126;2023-12-20T03:53:30;4.78;;;2.80;;
63046;SDS011;62025;39.238;9.126;2023-12-20T03:55:56;7.68;;;3.33;;
63046;SDS011;62025;39.238;9.126;2023-12-20T03:58:22;4.30;;;2.92;;
63046;SDS011;62025;39.238;9.126;2023-12-20T04:00:48;4.55;;;3.05;;
63046;SDS011;62025;39.238;9.126;2023-12-20T04:03:14;6.63;;;4.40;;
63046;SDS011;62025;39.238;9.126;2023-12-20T04:05:40;8.32;;;4.35;;
63046;SDS011;62025;39.238;9.126;2023-12-20T04:08:07;5.43;;;3.72;;
63046;SDS011;62025;39.238;9.126;2023-12-20T04:10:33;5.82;;;4.10;;
63046;SDS011;62025;39.238;9.126;2023-12-20T04:12:59;5.45;;;3.67;;
63046;SDS011;62025;39.238;9.126;2023-12-20T04:15:25;5.18;;;3.50;;
63046;SDS011;62025;39.238;9.126;2023-12-20T04:17:51;6.43;;;3.50;;
63046;SDS011;62025;39.238;9.126;2023-12-20T04:20:17;3.83;;;3.08;;
63046;SDS011;62025;39.238;9.126;2023-12-20T04:22:43;4.65;;;3.50;;
63046;SDS011;62025;39.238;9.126;2023-12-20T04:25:09;4.38;;;3.42;;
63046;SDS011;62025;39.238;9.126;2023-12-20T04:27:35;5.22;;;3.47;;
63046;SDS011;62025;39.238;9.126;2023-12-20T04:30:01;7.15;;;3.50;;
63046;SDS011;62025;39.238;9.126;2023-12-20T04:32:27;6.05;;;3.40;;
63046;SDS011;62025;39.238;9.126;2023-12-20T04:34:53;5.13;;;3.50;;
63046;SDS011;62025;39.238;9.126;2023-12-20T04:37:19;6.65;;;3.30;;
63046;SDS011;62025;39.238;9.126;2023-12-20T04:39:45;6.15;;;3.03;;
63046;SDS011;62025;39.238;9.126;2023-12-20T04:42:11;4.88;;;3.30;;
63046;SDS011;62025;39.238;9.126;2023-12-20T04:44:37;5.65;;;3.55;;
63046;SDS011;62025;39.238;9.126;2023-12-20T04:47:03;7.80;;;4.03;;
63046;SDS011;62025;39.238;9.126;2023-12-20T04:49:29;7.45;;;3.42;;
63046;SDS011;62025;39.238;9.126;2023-12-20T04:51:55;5.55;;;3.05;;
63046;SDS011;62025;39.238;9.126;2023-12-20T04:54:21;5.38;;;3.35;;
63046;SDS011;62025;39.238;9.126;2023-12-20T04:56:47;6.20;;;3.42;;
63046;SDS011;62025;39.238;9.126;2023-12-20T04:59:14;4.10;;;3.40;;
63046;SDS011;62025;39.238;9.126;2023-12-20T05:01:40;5.18;;;3.60;;
63046;SDS011;62025;39.238;9.126;2023-12-20T05:04:06;4.93;;;3.78;;
63046;SDS011;62025;39.238;9.126;2023-12-20T05:06:32;5.10;;;4.38;;
63046;SDS011;62025;39.238;9.126;2023-12-20T05:08:58;6.28;;;4.20;;
63046;SDS011;62025;39.238;9.126;2023-12-20T05:11:24;6.90;;;4.03;;
63046;SDS011;62025;39.238;9.126;2023-12-20T05:13:50;4.40;;;3.40;;
63046;SDS011;62025;39.238;9.126;2023-12-20T05:16:16;5.68;;;4.05;;
63046;SDS011;62025;39.238;9.126;2023-12-20T05:18:47;6.00;;;3.50;;
63046;SDS011;62025;39.238;9.126;2023-12-20T05:21:18;6.47;;;3.70;;
63046;SDS011;62025;39.238;9.126;2023-12-20T05:23:44;6.43;;;3.83;;
63046;SDS011;62025;39.238;9.126;2023-12-20T05:26:11;7.72;;;4.03;;
63046;SDS011;62025;39.238;9.126;2023-12-20T05:28:37;8.57;;;4.65;;
63046;SDS011;62025;39.238;9.126;2023-12-20T05:31:03;7.65;;;4.05;;
63046;SDS011;62025;39.238;9.126;2023-12-20T05:33:29;6.13;;;4.43;;
63046;SDS011;62025;39.238;9.126;2023-12-20T05:35:55;8.45;;;4.75;;
63046;SDS011;62025;39.238;9.126;2023-12-20T05:38:21;7.30;;;4.53;;
63046;SDS011;62025;39.238;9.126;2023-12-20T05:40:47;6.43;;;4.22;;
63046;SDS011;62025;39.238;9.126;2023-12-20T05:43:13;5.00;;;3.80;;
63046;SDS011;62025;39.238;9.126;2023-12-20T05:45:39;5.65;;;3.90;;
63046;SDS011;62025;39.238;9.126;2023-12-20T05:48:05;5.90;;;3.88;;
63046;SDS011;62025;39.238;9.126;2023-12-20T05:50:31;7.45;;;3.85;;
63046;SDS011;62025;39.238;9.126;2023-12-20T05:52:57;7.80;;;3.97;;
63046;SDS011;62025;39.238;9.126;2023-12-20T05:55:23;5.57;;;3.53;;
63046;SDS011;62025;39.238;9.126;2023-12-20T05:57:49;5.13;;;3.70;;
63046;SDS011;62025;39.238;9.126;2023-12-20T06:00:15;6.07;;;3.92;;
63046;SDS011;62025;39.238;9.126;2023-12-20T06:02:42;4.57;;;3.40;;
63046;SDS011;62025;39.238;9.126;2023-12-20T06:05:08;5.55;;;3.38;;
63046;SDS011;62025;39.238;9.126;2023-12-20T06:07:34;6.68;;;3.83;;
63046;SDS011;62025;39.238;9.126;2023-12-20T06:10:00;4.85;;;3.85;;
63046;SDS011;62025;39.238;9.126;2023-12-20T06:12:26;7.05;;;3.80;;
63046;SDS011;62025;39.238;9.126;2023-12-20T06:14:53;4.05;;;3.55;;
63046;SDS011;62025;39.238;9.126;2023-12-20T06:17:20;5.43;;;3.85;;
63046;SDS011;62025;39.238;9.126;2023-12-20T06:19:46;5.75;;;4.00;;
63046;SDS011;62025;39.238;9.126;2023-12-20T06:22:14;7.78;;;4.43;;
63046;SDS011;62025;39.238;9.126;2023-12-20T06:24:41;8.20;;;5.25;;
63046;SDS011;62025;39.238;9.126;2023-12-20T06:27:07;9.07;;;5.55;;
63046;SDS011;62025;39.238;9.126;2023-12-20T06:29:33;8.20;;;4.90;;
63046;SDS011;62025;39.238;9.126;2023-12-20T06:32:00;10.20;;;5.00;;
63046;SDS011;62025;39.238;9.126;2023-12-20T06:34:26;8.13;;;5.32;;
63046;SDS011;62025;39.238;9.126;2023-12-20T06:36:51;9.15;;;5.13;;
63046;SDS011;62025;39.238;9.126;2023-12-20T06:39:17;6.65;;;4.50;;
63046;SDS011;62025;39.238;9.126;2023-12-20T06:41:43;14.15;;;4.90;;
63046;SDS011;62025;39.238;9.126;2023-12-20T06:44:09;8.02;;;5.88;;
63046;SDS011;62025;39.238;9.126;2023-12-20T06:46:35;5.68;;;4.65;;
63046;SDS011;62025;39.238;9.126;2023-12-20T06:49:01;7.10;;;5.03;;
63046;SDS011;62025;39.238;9.126;2023-12-20T06:51:27;7.38;;;5.38;;
63046;SDS011;62025;39.238;9.126;2023-12-20T06:53:53;8.82;;;6.00;;
63046;SDS011;62025;39.238;9.126;2023-12-20T06:56:19;9.77;;;5.32;;
63046;SDS011;62025;39.238;9.126;2023-12-20T06:58:46;8.40;;;5.30;;
63046;SDS011;62025;39.238;9.126;2023-12-20T07:01:12;8.82;;;5.65;;
63046;SDS011;62025;39.238;9.126;2023-12-20T07:03:39;10.90;;;6.90;;
63046;SDS011;62025;39.238;9.126;2023-12-20T07:06:06;11.75;;;6.10;;
63046;SDS011;62025;39.238;9.126;2023-12-20T07:08:32;8.57;;;5.60;;
63046;SDS011;62025;39.238;9.126;2023-12-20T07:10:58;11.10;;;6.70;;
63046;SDS011;62025;39.238;9.126;2023-12-20T07:13:24;8.77;;;5.40;;
63046;SDS011;62025;39.238;9.126;2023-12-20T07:15:50;7.25;;;5.57;;
63046;SDS011;62025;39.238;9.126;2023-12-20T07:18:16;11.75;;;6.15;;
63046;SDS011;62025;39.238;9.126;2023-12-20T07:20:42;10.45;;;6.38;;
63046;SDS011;62025;39.238;9.126;2023-12-20T07:23:08;14.43;;;6.80;;
63046;SDS011;62025;39.238;9.126;2023-12-20T07:25:34;9.95;;;6.20;;
63046;SDS011;62025;39.238;9.126;2023-12-20T07:28:00;11.20;;;6.50;;
63046;SDS011;62025;39.238;9.126;2023-12-20T07:30:27;16.27;;;5.75;;
63046;SDS011;62025;39.238;9.126;2023-12-20T07:32:53;11.88;;;5.82;;
63046;SDS011;62025;39.238;9.126;2023-12-20T07:35:19;10.43;;;6.00;;
63046;SDS011;62025;39.238;9.126;2023-12-20T07:37:45;13.68;;;6.97;;
63046;SDS011;62025;39.238;9.126;2023-12-20T07:40:11;14.32;;;6.85;;
63046;SDS011;62025;39.238;9.126;2023-12-20T07:42:37;17.13;;;8.68;;
63046;SDS011;62025;39.238;9.126;2023-12-20T07:45:03;13.90;;;7.03;;
63046;SDS011;62025;39.238;9.126;2023-12-20T07:47:30;14.00;;;6.50;;
63046;SDS011;62025;39.238;9.126;2023-12-20T07:49:56;10.65;;;6.32;;
63046;SDS011;62025;39.238;9.126;2023-12-20T07:52:22;13.27;;;6.13;;
63046;SDS011;62025;39.238;9.126;2023-12-20T07:54:48;11.98;;;5.68;;
63046;SDS011;62025;39.238;9.126;2023-12-20T07:57:14;13.20;;;6.18;;
63046;SDS011;62025;39.238;9.126;2023-12-20T07:59:40;8.65;;;5.38;;
63046;SDS011;62025;39.238;9.126;2023-12-20T08:02:06;8.75;;;5.80;;
63046;SDS011;62025;39.238;9.126;2023-12-20T08:04:33;9.50;;;5.65;;
63046;SDS011;62025;39.238;9.126;2023-12-20T08:06:59;10.15;;;5.38;;
63046;SDS011;62025;39.238;9.126;2023-12-20T08:09:25;8.65;;;5.80;;
63046;SDS011;62025;39.238;9.126;2023-12-20T08:11:51;7.30;;;5.05;;
63046;SDS011;62025;39.238;9.126;2023-12-20T08:14:17;9.65;;;5.05;;
63046;SDS011;62025;39.238;9.126;2023-12-20T08:16:43;7.93;;;5.13;;
63046;SDS011;62025;39.238;9.126;2023-12-20T08:19:09;11.32;;;4.97;;
63046;SDS011;62025;39.238;9.126;2023-12-20T08:21:35;6.45;;;4.50;;
63046;SDS011;62025;39.238;9.126;2023-12-20T08:24:01;5.65;;;4.22;;
63046;SDS011;62025;39.238;9.126;2023-12-20T08:26:28;5.78;;;4.22;;
63046;SDS011;62025;39.238;9.126;2023-12-20T08:28:54;6.07;;;4.45;;
63046;SDS011;62025;39.238;9.126;2023-12-20T08:31:20;6.10;;;4.00;;
63046;SDS011;62025;39.238;9.126;2023-12-20T08:33:47;8.10;;;5.00;;
63046;SDS011;62025;39.238;9.126;2023-12-20T08:36:14;10.02;;;4.82;;
63046;SDS011;62025;39.238;9.126;2023-12-20T08:38:42;7.05;;;4.88;;
63046;SDS011;62025;39.238;9.126;2023-12-20T08:41:08;6.95;;;5.18;;
63046;SDS011;62025;39.238;9.126;2023-12-20T08:43:34;12.07;;;6.22;;
63046;SDS011;62025;39.238;9.126;2023-12-20T08:46:01;10.88;;;6.43;;
63046;SDS011;62025;39.238;9.126;2023-12-20T08:48:28;12.50;;;7.13;;
63046;SDS011;62025;39.238;9.126;2023-12-20T08:50:54;9.95;;;7.43;;
63046;SDS011;62025;39.238;9.126;2023-12-20T08:53:20;8.70;;;7.22;;
63046;SDS011;62025;39.238;9.126;2023-12-20T08:55:47;10.27;;;7.53;;
63046;SDS011;62025;39.238;9.126;2023-12-20T08:58:13;11.10;;;7.35;;
63046;SDS011;62025;39.238;9.126;2023-12-20T09:00:40;11.57;;;6.78;;
63046;SDS011;62025;39.238;9.126;2023-12-20T09:03:06;9.32;;;6.28;;
63046;SDS011;62025;39.238;9.126;2023-12-20T09:05:32;8.32;;;6.25;;
63046;SDS011;62025;39.238;9.126;2023-12-20T09:07:58;8.90;;;5.65;;
63046;SDS011;62025;39.238;9.126;2023-12-20T09:10:24;7.68;;;5.05;;
63046;SDS011;62025;39.238;9.126;2023-12-20T09:12:51;7.55;;;4.72;;
63046;SDS011;62025;39.238;9.126;2023-12-20T09:15:22;6.85;;;5.22;;
63046;SDS011;62025;39.238;9.126;2023-12-20T09:17:49;8.25;;;5.82;;
63046;SDS011;62025;39.238;9.126;2023-12-20T09:20:15;9.40;;;6.80;;
63046;SDS011;62025;39.238;9.126;2023-12-20T09:22:42;8.98;;;6.28;;
63046;SDS011;62025;39.238;9.126;2023-12-20T09:25:09;8.38;;;6.10;;
63046;SDS011;62025;39.238;9.126;2023-12-20T09:27:36;8.47;;;5.67;;
63046;SDS011;62025;39.238;9.126;2023-12-20T09:30:02;8.93;;;5.78;;
63046;SDS011;62025;39.238;9.126;2023-12-20T09:32:30;10.77;;;6.05;;
63046;SDS011;62025;39.238;9.126;2023-12-20T09:34:57;9.20;;;5.53;;
63046;SDS011;62025;39.238;9.126;2023-12-20T09:37:25;6.82;;;5.10;;
63046;SDS011;62025;39.238;9.126;2023-12-20T09:39:52;6.28;;;4.72;;
63046;SDS011;62025;39.238;9.126;2023-12-20T09:42:38;5.75;;;4.55;;
63046;SDS011;62025;39.238;9.126;2023-12-20T09:45:28;10.07;;;5.75;;
63046;SDS011;62025;39.238;9.126;2023-12-20T09:47:57;6.95;;;5.25;;
63046;SDS011;62025;39.238;9.126;2023-12-20T09:50:23;8.38;;;4.80;;
63046;SDS011;62025;39.238;9.126;2023-12-20T09:52:50;7.25;;;5.35;;
63046;SDS011;62025;39.238;9.126;2023-12-20T09:55:18;7.22;;;4.60;;
63046;SDS011;62025;39.238;9.126;2023-12-20T09:57:48;5.35;;;3.95;;
63046;SDS011;62025;39.238;9.126;2023-12-20T10:00:15;4.65;;;3.97;;
63046;SDS011;62025;39.238;9.126;2023-12-20T10:02:45;7.97;;;4.22;;
63046;SDS011;62025;39.238;9.126;2023-12-20T10:05:26;5.50;;;3.83;;
63046;SDS011;62025;39.238;9.126;2023-12-20T10:07:56;4.28;;;3.80;;
63046;SDS011;62025;39.238;9.126;2023-12-20T10:10:24;5.05;;;4.32;;
63046;SDS011;62025;39.238;9.126;2023-12-20T10:15:34;5.60;;;3.75;;
63046;SDS011;62025;39.238;9.126;2023-12-20T10:18:02;6.28;;;4.20;;
63046;SDS011;62025;39.238;9.126;2023-12-20T10:20:29;7.47;;;4.18;;
63046;SDS011;62025;39.238;9.126;2023-12-20T10:22:56;7.35;;;4.63;;
63046;SDS011;62025;39.238;9.126;2023-12-20T10:25:24;9.95;;;4.80;;
63046;SDS011;62025;39.238;9.126;2023-12-20T10:30:35;6.25;;;4.75;;
63046;SDS011;62025;39.238;9.126;2023-12-20T10:33:01;8.23;;;4.85;;
63046;SDS011;62025;39.238;9.126;2023-12-20T10:35:28;7.53;;;4.65;;
63046;SDS011;62025;39.238;9.126;2023-12-20T10:37:55;6.90;;;4.40;;
63046;SDS011;62025;39.238;9.126;2023-12-20T10:40:21;8.37;;;4.73;;
63046;SDS011;62025;39.238;9.126;2023-12-20T10:42:48;6.97;;;4.50;;
63046;SDS011;62025;39.238;9.126;2023-12-20T10:45:16;8.57;;;4.68;;
63046;SDS011;62025;39.238;9.126;2023-12-20T10:47:43;5.53;;;4.53;;
63046;SDS011;62025;39.238;9.126;2023-12-20T10:50:12;6.85;;;4.15;;
63046;SDS011;62025;39.238;9.126;2023-12-20T10:52:38;5.97;;;3.92;;
63046;SDS011;62025;39.238;9.126;2023-12-20T10:55:06;6.60;;;4.35;;
63046;SDS011;62025;39.238;9.126;2023-12-20T10:57:33;5.93;;;4.20;;
63046;SDS011;62025;39.238;9.126;2023-12-20T11:00:01;6.07;;;4.40;;
63046;SDS011;62025;39.238;9.126;2023-12-20T11:02:30;5.33;;;4.30;;
63046;SDS011;62025;39.238;9.126;2023-12-20T11:08:03;9.55;;;4.80;;
63046;SDS011;62025;39.238;9.126;2023-12-20T11:11:33;9.95;;;4.30;;
63046;SDS011;62025;39.238;9.126;2023-12-20T11:14:13;7.13;;;3.97;;
63046;SDS011;62025;39.238;9.126;2023-12-20T11:16:50;7.65;;;3.90;;
63046;SDS011;62025;39.238;9.126;2023-12-20T11:19:30;6.68;;;3.70;;
63046;SDS011;62025;39.238;9.126;2023-12-20T11:21:56;7.65;;;4.00;;
63046;SDS011;62025;39.238;9.126;2023-12-20T11:24:22;5.88;;;3.20;;
63046;SDS011;62025;39.238;9.126;2023-12-20T11:26:50;8.57;;;4.72;;
63046;SDS011;62025;39.238;9.126;2023-12-20T11:29:35;8.07;;;3.40;;
63046;SDS011;62025;39.238;9.126;2023-12-20T11:32:43;7.63;;;3.40;;
63046;SDS011;62025;39.238;9.126;2023-12-20T11:37:30;5.78;;;3.55;;
63046;SDS011;62025;39.238;9.126;2023-12-20T11:40:07;6.50;;;3.70;;
63046;SDS011;62025;39.238;9.126;2023-12-20T11:42:40;6.20;;;3.67;;
63046;SDS011;62025;39.238;9.126;2023-12-20T11:45:08;6.25;;;3.45;;
63046;SDS011;62025;39.238;9.126;2023-12-20T11:50:15;7.45;;;3.40;;
63046;SDS011;62025;39.238;9.126;2023-12-20T11:52:42;5.00;;;2.70;;
63046;SDS011;62025;39.238;9.126;2023-12-20T11:55:08;5.65;;;2.80;;
63046;SDS011;62025;39.238;9.126;2023-12-20T11:57:35;8.55;;;3.45;;
63046;SDS011;62025;39.238;9.126;2023-12-20T12:00:02;10.65;;;5.50;;
63046;SDS011;62025;39.238;9.126;2023-12-20T12:02:37;8.30;;;3.88;;
63046;SDS011;62025;39.238;9.126;2023-12-20T12:05:03;8.32;;;2.90;;
63046;SDS011;62025;39.238;9.126;2023-12-20T12:07:35;7.63;;;2.80;;
63046;SDS011;62025;39.238;9.126;2023-12-20T12:12:28;9.02;;;3.45;;
63046;SDS011;62025;39.238;9.126;2023-12-20T12:14:55;11.63;;;4.60;;
63046;SDS011;62025;39.238;9.126;2023-12-20T12:17:22;8.90;;;3.40;;
63046;SDS011;62025;39.238;9.126;2023-12-20T12:19:48;9.32;;;3.17;;
63046;SDS011;62025;39.238;9.126;2023-12-20T12:22:15;8.10;;;3.22;;
63046;SDS011;62025;39.238;9.126;2023-12-20T12:24:45;8.02;;;3.40;;
63046;SDS011;62025;39.238;9.126;2023-12-20T12:27:13;13.13;;;3.60;;
63046;SDS011;62025;39.238;9.126;2023-12-20T12:29:39;9.32;;;3.00;;
63046;SDS011;62025;39.238;9.126;2023-12-20T12:32:08;11.30;;;3.05;;
63046;SDS011;62025;39.238;9.126;2023-12-20T12:34:35;10.20;;;2.85;;
63046;SDS011;62025;39.238;9.126;2023-12-20T12:37:01;7.63;;;3.00;;
63046;SDS011;62025;39.238;9.126;2023-12-20T12:39:32;11.25;;;3.97;;
63046;SDS011;62025;39.238;9.126;2023-12-20T12:41:59;8.95;;;3.17;;
63046;SDS011;62025;39.238;9.126;2023-12-20T12:44:25;10.80;;;2.53;;
63046;SDS011;62025;39.238;9.126;2023-12-20T12:46:51;11.15;;;2.58;;
63046;SDS011;62025;39.238;9.126;2023-12-20T12:49:21;7.63;;;2.70;;
63046;SDS011;62025;39.238;9.126;2023-12-20T12:51:48;21.92;;;4.28;;
63046;SDS011;62025;39.238;9.126;2023-12-20T12:54:14;12.48;;;3.35;;
63046;SDS011;62025;39.238;9.126;2023-12-20T12:56:41;12.32;;;3.17;;
63046;SDS011;62025;39.238;9.126;2023-12-20T12:59:08;9.05;;;2.60;;
63046;SDS011;62025;39.238;9.126;2023-12-20T13:01:34;8.43;;;2.70;;
63046;SDS011;62025;39.238;9.126;2023-12-20T13:04:00;8.55;;;2.55;;
63046;SDS011;62025;39.238;9.126;2023-12-20T13:06:28;13.90;;;3.00;;
63046;SDS011;62025;39.238;9.126;2023-12-20T13:08:55;10.80;;;2.90;;
63046;SDS011;62025;39.238;9.126;2023-12-20T13:11:21;11.13;;;3.53;;
63046;SDS011;62025;39.238;9.126;2023-12-20T13:13:47;12.88;;;4.25;;
63046;SDS011;62025;39.238;9.126;2023-12-20T13:16:13;7.00;;;3.10;;
63046;SDS011;62025;39.238;9.126;2023-12-20T13:18:39;6.28;;;2.67;;
63046;SDS011;62025;39.238;9.126;2023-12-20T13:21:08;10.13;;;3.05;;
63046;SDS011;62025;39.238;9.126;2023-12-20T13:23:34;8.73;;;3.10;;
63046;SDS011;62025;39.238;9.126;2023-12-20T13:26:01;13.77;;;3.88;;
63046;SDS011;62025;39.238;9.126;2023-12-20T13:28:28;12.20;;;4.10;;
63046;SDS011;62025;39.238;9.126;2023-12-20T13:30:54;11.43;;;4.32;;
63046;SDS011;62025;39.238;9.126;2023-12-20T13:33:20;15.25;;;4.65;;
63046;SDS011;62025;39.238;9.126;2023-12-20T13:35:46;12.77;;;5.70;;
63046;SDS011;62025;39.238;9.126;2023-12-20T13:38:12;13.07;;;5.78;;
63046;SDS011;62025;39.238;9.126;2023-12-20T13:40:39;14.73;;;5.65;;
63046;SDS011;62025;39.238;9.126;2023-12-20T13:43:05;14.32;;;6.00;;
63046;SDS011;62025;39.238;9.126;2023-12-20T13:45:31;11.65;;;5.25;;
63046;SDS011;62025;39.238;9.126;2023-12-20T13:47:58;19.35;;;8.32;;
63046;SDS011;62025;39.238;9.126;2023-12-20T13:50:24;20.63;;;7.15;;
63046;SDS011;62025;39.238;9.126;2023-12-20T13:52:51;22.50;;;7.78;;
63046;SDS011;62025;39.238;9.126;2023-12-20T13:55:17;13.60;;;6.50;;
63046;SDS011;62025;39.238;9.126;2023-12-20T13:57:47;18.10;;;5.53;;
63046;SDS011;62025;39.238;9.126;2023-12-20T14:00:15;16.42;;;5.65;;
63046;SDS011;62025;39.238;9.126;2023-12-20T14:02:41;13.73;;;4.97;;
63046;SDS011;62025;39.238;9.126;2023-12-20T14:05:08;12.70;;;5.03;;
63046;SDS011;62025;39.238;9.126;2023-12-20T14:07:39;14.63;;;5.07;;
63046;SDS011;62025;39.238;9.126;2023-12-20T14:10:05;15.88;;;5.70;;
63046;SDS011;62025;39.238;9.126;2023-12-20T14:12:32;14.95;;;4.18;;
63046;SDS011;62025;39.238;9.126;2023-12-20T14:15:01;14.75;;;5.72;;
63046;SDS011;62025;39.238;9.126;2023-12-20T14:17:27;11.48;;;4.40;;
63046;SDS011;62025;39.238;9.126;2023-12-20T14:19:53;12.20;;;4.22;;
63046;SDS011;62025;39.238;9.126;2023-12-20T14:22:20;10.93;;;3.33;;
63046;SDS011;62025;39.238;9.126;2023-12-20T14:24:45;9.02;;;4.30;;
63046;SDS011;62025;39.238;9.126;2023-12-20T14:27:11;8.63;;;3.42;;
63046;SDS011;62025;39.238;9.126;2023-12-20T14:29:38;9.52;;;3.20;;
63046;SDS011;62025;39.238;9.126;2023-12-20T14:32:04;8.45;;;2.67;;
63046;SDS011;62025;39.238;9.126;2023-12-20T14:34:31;9.27;;;2.92;;
63046;SDS011;62025;39.238;9.126;2023-12-20T14:36:57;7.57;;;2.28;;
63046;SDS011;62025;39.238;9.126;2023-12-20T14:39:23;11.05;;;3.10;;
63046;SDS011;62025;39.238;9.126;2023-12-20T14:41:49;12.10;;;2.97;;
63046;SDS011;62025;39.238;9.126;2023-12-20T14:44:15;8.48;;;2.50;;
63046;SDS011;62025;39.238;9.126;2023-12-20T14:46:42;11.82;;;2.75;;
63046;SDS011;62025;39.238;9.126;2023-12-20T14:49:08;9.43;;;2.63;;
63046;SDS011;62025;39.238;9.126;2023-12-20T14:51:34;9.43;;;2.90;;
63046;SDS011;62025;39.238;9.126;2023-12-20T14:54:02;7.57;;;2.95;;
63046;SDS011;62025;39.238;9.126;2023-12-20T14:56:28;9.30;;;3.53;;
63046;SDS011;62025;39.238;9.126;2023-12-20T14:58:54;13.38;;;3.85;;